Aérodrome :
LOGIN :

S'inscrire | Disclaimer

   EN    FR    IT 

 










Légende :    VFR   VFR Marginal   IFR   IFR Intensif   IFR Très Intensif
Visi : 
Plafond : 
>= 8 km
>= 3000ft
5 à 8 km
1000 à 3000 ft
1500m à 5 km
500 à 1000 ft
800 à 1500m
200 à 500 ft
< 800m
< 200 ft
Symboles :   Orages  Brouillard  Fortes neiges  Fortes précipitations  Vent > 20 kt
SIGMETs :   Divers  Orages  Givrage  Turbulence  Onde Orograph.  Cendres Volcan.







- Altitude de l'aérodrome : 1363 ft


ETIC - Grafenwohr Army Air Field

DERNIER METAR :
  • 261056Z AUTO 28009KT 9999 FEW055 FEW070 SCT130 SCT190 20/08 A2998 RMK AO2 SLP149 T02010081 $

METARs EXPIRÉS :
  • 260956Z AUTO 24005KT 9999 SCT044 BKN060 19/09 A2999 RMK AO2 SLP152 T01870092 $
  • 260856Z AUTO 24004KT 9999 FEW031 19/10 A3000 RMK AO2 SLP154 T01860096 58005 $

TAF TAF ETIC
Valide du 26 à 06h jusqu'au 27 à 12h UTC


260612Z 2606/2712 VRB06KT 6000 BR FEW030 QNH2997INS
TEMPO 2606/2607 3200 BR
BECMG 2607/2608 26009KT 9999 NSW FEW040 QNH2994INS
BECMG 2613/2614 26009KT 9999 BKN065 QNH2994INS
BECMG 2617/2618 29009KT 9999 SCT055 QNH2994INS TX20/2613Z TN06/2703Z
Pas de NOTAMs connus pour ce terrain.



MET'MAP, la Météo Aéronautique d'un coup d'oeil ! - Copyright ORBIFLY Décembre 2007 - Disclaimer

ORBIFLY MET'MAP TEAM :

Programmation & Développement : Alexandra Zaïnal
Conception & Développement : Baudouin d'Aumeries
Co-Programmation & Développement : Marc-Olivier Méhu
Soutien technique & logistique : Manuel Goepfert

Contact : metmap@orbifly.com




SOURCES & CREDITS :

   NOAA